createdAt,value
2023-04-13T00:00:35.148Z,83.75
2023-04-13T00:03:04.350Z,84.09
2023-04-13T00:05:35.181Z,84.27
2023-04-13T00:08:04.610Z,84.08
2023-04-13T00:10:36.676Z,84.51
2023-04-13T00:13:05.701Z,84.37
2023-04-13T00:15:36.750Z,84.76
2023-04-13T00:18:07.077Z,84.44
2023-04-13T00:20:35.555Z,84.33
2023-04-13T00:23:04.615Z,84.61
2023-04-13T00:25:34.374Z,85.25
2023-04-13T00:28:06.284Z,84.68
2023-04-13T00:30:34.938Z,84.64
2023-04-13T00:33:06.135Z,85.16
2023-04-13T00:35:35.397Z,85.04
2023-04-13T00:38:04.457Z,85.97
2023-04-13T00:40:37.720Z,85.51
2023-04-13T00:43:06.671Z,85.57
2023-04-13T00:45:39.170Z,85.55
2023-04-13T00:48:10.967Z,85.38
2023-04-13T00:50:40.207Z,85.78
2023-04-13T00:53:13.189Z,85.30
2023-04-13T00:55:44.013Z,85.29
2023-04-13T00:58:13.743Z,84.80
2023-04-13T01:00:42.972Z,85.42
2023-04-13T01:03:12.547Z,85.57
2023-04-13T01:05:50.661Z,85.81
2023-04-13T01:08:31.005Z,86.18
2023-04-13T01:11:06.966Z,86.14
2023-04-13T01:13:43.406Z,85.93
2023-04-13T01:16:19.276Z,85.41
2023-04-13T01:18:54.143Z,85.53
2023-04-13T01:21:27.702Z,85.56
2023-04-13T01:24:17.935Z,85.20
2023-04-13T01:26:59.032Z,85.37
2023-04-13T01:29:29.909Z,85.31
2023-04-13T01:31:58.521Z,84.79
2023-04-13T01:34:27.338Z,85.21
2023-04-13T01:36:56.866Z,85.66
2023-04-13T01:39:26.915Z,85.13
2023-04-13T01:42:04.075Z,84.98
2023-04-13T01:44:36.707Z,85.14
2023-04-13T01:47:16.220Z,84.98
2023-04-13T01:50:19.425Z,85.14
2023-04-13T01:52:59.844Z,85.14
2023-04-13T01:55:30.462Z,85.00
2023-04-13T01:58:01.982Z,85.39
2023-04-13T02:00:36.479Z,85.55
2023-04-13T02:03:12.418Z,85.53
2023-04-13T02:05:41.602Z,85.38
2023-04-13T02:08:10.690Z,85.74
2023-04-13T02:10:46.340Z,85.71
2023-04-13T02:13:14.701Z,85.28
2023-04-13T02:15:44.707Z,85.80
2023-04-13T02:18:13.502Z,85.22
2023-04-13T02:20:45.564Z,85.57
2023-04-13T02:23:15.796Z,84.76
2023-04-13T02:25:48.068Z,84.53
2023-04-13T02:28:18.742Z,84.33
2023-04-13T02:30:49.695Z,84.23
2023-04-13T02:33:19.182Z,84.15
2023-04-13T02:35:48.843Z,83.75
2023-04-13T02:38:18.475Z,83.93
2023-04-13T02:40:56.378Z,84.59
2023-04-13T02:43:26.489Z,84.40
2023-04-13T02:45:57.595Z,84.29
2023-04-13T02:48:29.978Z,84.11
2023-04-13T02:50:58.591Z,83.73
2023-04-13T02:53:32.027Z,83.70
2023-04-13T02:56:06.324Z,83.68
2023-04-13T02:58:35.008Z,83.24
2023-04-13T03:01:08.880Z,83.37
2023-04-13T03:03:38.033Z,83.40
2023-04-13T03:06:07.638Z,83.60
2023-04-13T03:08:43.472Z,83.88
2023-04-13T03:11:18.550Z,83.83
2023-04-13T03:13:54.099Z,83.80
2023-04-13T03:16:23.859Z,83.96
2023-04-13T03:18:52.598Z,83.99
2023-04-13T03:21:21.047Z,83.70
2023-04-13T03:24:05.255Z,83.69
2023-04-13T03:26:34.019Z,84.38
2023-04-13T03:29:05.899Z,84.77
2023-04-13T03:31:39.034Z,84.71
2023-04-13T03:34:07.591Z,85.13
2023-04-13T03:36:36.704Z,84.70
2023-04-13T03:39:06.073Z,84.17
2023-04-13T03:41:38.559Z,83.76
2023-04-13T03:44:10.035Z,84.54
2023-04-13T03:46:41.516Z,84.50
2023-04-13T03:49:22.025Z,84.06
2023-04-13T03:51:50.972Z,83.77
2023-04-13T03:54:19.407Z,84.41
2023-04-13T03:56:48.136Z,84.34
2023-04-13T03:59:16.536Z,84.25
2023-04-13T04:01:46.413Z,84.43
2023-04-13T04:04:15.093Z,84.51
2023-04-13T04:06:43.617Z,84.75
2023-04-13T04:09:14.672Z,84.81
2023-04-13T04:11:46.712Z,85.05
2023-04-13T04:14:20.463Z,84.37
2023-04-13T04:17:00.311Z,83.96
2023-04-13T04:19:28.673Z,83.63
2023-04-13T04:21:58.026Z,83.19
2023-04-13T04:24:29.841Z,82.71
2023-04-13T04:27:01.174Z,82.98
2023-04-13T04:29:34.200Z,82.12
2023-04-13T04:32:10.911Z,82.14
2023-04-13T04:34:41.141Z,82.46
2023-04-13T04:37:20.350Z,81.96
2023-04-13T04:40:00.109Z,81.87
2023-04-13T04:42:28.608Z,82.27
2023-04-13T04:44:59.205Z,82.06
2023-04-13T04:47:30.838Z,81.53
2023-04-13T04:50:17.727Z,80.85
2023-04-13T04:52:48.727Z,80.86
2023-04-13T04:55:22.040Z,80.83
2023-04-13T04:57:50.605Z,81.08
2023-04-13T05:00:22.141Z,81.15
2023-04-13T05:03:02.401Z,81.53
2023-04-13T05:05:31.225Z,82.19
2023-04-13T05:08:04.387Z,82.66
2023-04-13T05:10:33.427Z,82.99
2023-04-13T05:13:01.900Z,83.12
2023-04-13T05:15:31.856Z,83.88
2023-04-13T05:18:01.861Z,84.25
2023-04-13T05:20:32.192Z,84.63
2023-04-13T05:23:06.129Z,84.19
2023-04-13T05:25:39.971Z,84.42
2023-04-13T05:28:16.510Z,84.11
2023-04-13T05:30:45.860Z,83.46
2023-04-13T05:33:17.083Z,83.68
2023-04-13T05:35:46.823Z,83.61
2023-04-13T05:38:15.240Z,83.46
2023-04-13T05:40:45.122Z,84.10
2023-04-13T05:43:14.171Z,83.75
2023-04-13T05:45:48.593Z,84.17
2023-04-13T05:48:19.011Z,84.33
2023-04-13T05:50:48.412Z,84.55
2023-04-13T05:53:17.137Z,84.25
2023-04-13T05:55:49.028Z,84.28
2023-04-13T05:58:19.140Z,84.71
2023-04-13T06:00:50.685Z,85.00
2023-04-13T06:03:30.171Z,84.78
2023-04-13T06:05:59.455Z,84.60
2023-04-13T06:08:32.614Z,85.30
2023-04-13T06:11:01.724Z,85.09
2023-04-13T06:13:31.657Z,85.22
2023-04-13T06:16:00.365Z,84.84
2023-04-13T06:18:30.738Z,84.58
2023-04-13T06:20:59.636Z,84.90
2023-04-13T06:23:28.078Z,84.85
2023-04-13T06:26:00.122Z,85.29
2023-04-13T06:28:42.877Z,85.02
2023-04-13T06:31:13.662Z,85.43
2023-04-13T06:33:44.534Z,85.47
2023-04-13T06:36:13.641Z,85.50
2023-04-13T06:38:41.983Z,85.54
2023-04-13T06:41:14.584Z,85.79
2023-04-13T06:43:45.663Z,85.58
2023-04-13T06:46:19.714Z,85.07
2023-04-13T06:48:52.520Z,85.24
2023-04-13T06:51:25.336Z,85.02
2023-04-13T06:53:55.125Z,85.30
2023-04-13T06:56:24.334Z,84.69
2023-04-13T06:58:52.767Z,84.16
2023-04-13T07:01:22.059Z,84.04
2023-04-13T07:03:52.177Z,83.03
2023-04-13T07:06:22.958Z,82.92
2023-04-13T07:08:53.289Z,82.93
2023-04-13T07:11:22.821Z,82.30
2023-04-13T07:13:51.181Z,82.09
2023-04-13T07:16:19.584Z,82.11
2023-04-13T07:18:49.427Z,79.98
2023-04-13T07:21:19.056Z,79.98
2023-04-13T07:24:01.543Z,80.27
2023-04-13T07:26:31.040Z,79.25
2023-04-13T07:29:00.610Z,78.55
2023-04-13T07:31:32.779Z,78.14
2023-04-13T07:34:01.221Z,77.71
2023-04-13T07:36:36.583Z,78.36
2023-04-13T07:39:10.886Z,77.77
2023-04-13T07:41:43.016Z,80.31
2023-04-13T07:44:16.164Z,80.55
2023-04-13T07:46:44.823Z,80.87
2023-04-13T07:49:13.338Z,81.88
2023-04-13T07:51:44.859Z,82.68
2023-04-13T07:54:16.969Z,83.34
2023-04-13T07:56:46.873Z,82.94
2023-04-13T07:59:16.021Z,82.89
2023-04-13T08:01:46.565Z,82.84
2023-04-13T08:04:15.286Z,82.57
2023-04-13T08:06:46.837Z,81.98
2023-04-13T08:09:15.312Z,82.78
2023-04-13T08:11:44.396Z,82.42
2023-04-13T08:14:13.947Z,82.29
2023-04-13T08:16:42.721Z,82.80
2023-04-13T08:19:13.493Z,82.09
2023-04-13T08:21:49.082Z,81.38
2023-04-13T08:24:17.451Z,79.74
2023-04-13T08:26:45.722Z,79.68
2023-04-13T08:29:15.505Z,79.64
2023-04-13T08:31:44.020Z,78.51
2023-04-13T08:34:14.080Z,77.48
2023-04-13T08:36:42.340Z,74.93
2023-04-13T08:39:13.504Z,76.00
2023-04-13T08:41:47.815Z,76.04
2023-04-13T08:44:19.052Z,75.34
2023-04-13T08:46:52.480Z,74.90
2023-04-13T08:49:27.184Z,74.50
2023-04-13T08:52:16.712Z,75.82
2023-04-13T08:54:51.572Z,75.81
2023-04-13T08:57:25.120Z,75.94
2023-04-13T08:59:54.828Z,75.49
2023-04-13T09:02:26.555Z,74.19
2023-04-13T09:05:06.076Z,75.23
2023-04-13T09:07:36.955Z,75.01
2023-04-13T09:10:16.426Z,73.97
2023-04-13T09:12:50.847Z,74.97
2023-04-13T09:15:19.996Z,72.09
2023-04-13T09:18:12.784Z,73.45
2023-04-13T09:20:57.990Z,74.94
2023-04-13T09:23:27.010Z,76.96
2023-04-13T09:26:08.528Z,77.40
2023-04-13T09:28:48.050Z,76.00
2023-04-13T09:31:16.887Z,74.38
2023-04-13T09:33:46.845Z,73.30
2023-04-13T09:36:17.437Z,73.78
2023-04-13T09:38:46.755Z,72.82
2023-04-13T09:41:16.705Z,72.98
2023-04-13T09:43:45.060Z,71.76
2023-04-13T09:46:14.841Z,70.37
2023-04-13T09:48:43.686Z,71.21
2023-04-13T09:51:12.123Z,71.22
2023-04-13T09:53:47.527Z,70.45
2023-04-13T09:56:18.753Z,70.27
2023-04-13T09:58:48.786Z,71.11
2023-04-13T10:01:17.562Z,70.09
2023-04-13T10:03:46.345Z,71.19
2023-04-13T10:06:15.283Z,69.06
2023-04-13T10:08:46.389Z,69.01
2023-04-13T10:11:17.729Z,69.81
2023-04-13T10:13:53.283Z,68.64
2023-04-13T10:16:48.977Z,69.83
2023-04-13T10:19:22.520Z,69.56
2023-04-13T10:21:53.254Z,68.99
2023-04-13T10:24:23.537Z,69.69
2023-04-13T10:26:56.195Z,67.14
2023-04-13T10:29:32.754Z,68.88
2023-04-13T10:32:04.175Z,67.56
2023-04-13T10:34:36.021Z,68.41
2023-04-13T10:37:06.828Z,67.59
2023-04-13T10:39:37.763Z,65.68
2023-04-13T10:42:09.153Z,65.36
2023-04-13T10:44:45.704Z,65.42
2023-04-13T10:47:15.579Z,64.86
2023-04-13T10:49:46.064Z,63.15
2023-04-13T10:52:14.644Z,63.73
2023-04-13T10:54:44.564Z,64.10
2023-04-13T10:57:16.774Z,63.22
2023-04-13T10:59:57.869Z,63.95
2023-04-13T11:02:33.037Z,62.64
2023-04-13T11:05:02.382Z,62.89
2023-04-13T11:07:31.562Z,62.71
2023-04-13T11:12:32.634Z,62.00
2023-04-13T11:15:01.656Z,62.44
2023-04-13T11:17:30.311Z,61.19
2023-04-13T11:19:59.682Z,61.74
2023-04-13T11:22:28.727Z,61.47
2023-04-13T11:25:09.129Z,61.66
2023-04-13T11:27:39.010Z,59.97
2023-04-13T11:30:11.131Z,59.56
2023-04-13T11:32:43.601Z,60.80
2023-04-13T11:35:15.051Z,59.13
2023-04-13T11:37:47.044Z,58.34
2023-04-13T11:40:21.291Z,58.01
2023-04-13T11:42:53.655Z,58.22
2023-04-13T11:45:25.884Z,56.72
2023-04-13T11:47:54.985Z,57.30
2023-04-13T11:50:24.664Z,57.08
2023-04-13T11:52:56.941Z,57.06
2023-04-13T11:55:26.742Z,58.06
2023-04-13T11:57:56.822Z,56.97
2023-04-13T12:00:27.513Z,57.15
2023-04-13T12:05:32.515Z,55.83
2023-04-13T12:08:04.309Z,56.33
2023-04-13T12:10:41.367Z,53.47
2023-04-13T12:13:33.593Z,54.44
2023-04-13T12:16:11.268Z,54.22
2023-04-13T12:18:49.493Z,52.12
2023-04-13T12:21:20.856Z,53.14
2023-04-13T12:23:56.919Z,54.82
2023-04-13T12:27:16.117Z,53.48
2023-04-13T12:29:24.328Z,54.48
2023-04-13T12:31:52.786Z,52.56
2023-04-13T12:34:22.798Z,52.42
2023-04-13T12:36:51.473Z,52.85
2023-04-13T12:39:20.587Z,47.88
2023-04-13T12:41:49.046Z,50.42
2023-04-13T12:44:17.455Z,48.80
2023-04-13T12:46:47.306Z,47.47
2023-04-13T12:49:15.850Z,47.19
2023-04-13T12:51:44.187Z,49.38
2023-04-13T12:54:14.704Z,49.84
2023-04-13T12:56:43.106Z,48.01
2023-04-13T12:59:11.470Z,47.98
2023-04-13T13:01:39.791Z,47.85
2023-04-13T13:04:09.597Z,49.11
2023-04-13T13:06:38.097Z,48.33
2023-04-13T13:09:07.513Z,47.21
2023-04-13T13:11:36.004Z,47.33
2023-04-13T13:14:04.435Z,46.48
2023-04-13T13:16:33.142Z,48.67
2023-04-13T13:19:02.489Z,46.48
2023-04-13T13:21:32.667Z,46.49
2023-04-13T13:24:01.035Z,44.64
2023-04-13T13:26:39.523Z,45.90
2023-04-13T13:29:19.489Z,47.96
2023-04-13T13:31:48.004Z,47.68
2023-04-13T13:34:16.463Z,46.32
2023-04-13T13:36:46.458Z,47.12
2023-04-13T13:39:14.858Z,48.42
2023-04-13T13:41:43.351Z,46.25
2023-04-13T13:44:11.857Z,46.81
2023-04-13T13:46:40.302Z,46.42
2023-04-13T13:49:09.230Z,45.17
2023-04-13T13:52:01.642Z,46.69
2023-04-13T13:54:34.062Z,44.61
2023-04-13T13:57:02.425Z,46.04
2023-04-13T13:59:30.726Z,45.44
2023-04-13T14:02:00.058Z,45.87
2023-04-13T14:04:28.844Z,45.51
2023-04-13T14:06:57.508Z,43.11
2023-04-13T14:09:27.852Z,44.71
2023-04-13T14:11:56.483Z,43.89
2023-04-13T14:14:24.907Z,45.50
2023-04-13T14:16:53.347Z,44.17
2023-04-13T14:19:22.292Z,41.22
2023-04-13T14:21:50.914Z,43.29
2023-04-13T14:24:19.310Z,43.45
2023-04-13T14:26:49.020Z,43.88
2023-04-13T14:29:17.911Z,42.07
2023-04-13T14:31:46.223Z,42.38
2023-04-13T14:34:14.660Z,42.83
2023-04-13T14:36:44.733Z,42.09
2023-04-13T14:39:13.076Z,42.06
2023-04-13T14:41:41.614Z,43.19
2023-04-13T14:44:11.393Z,42.11
2023-04-13T14:46:39.915Z,42.37
2023-04-13T14:49:08.359Z,42.93
2023-04-13T14:51:37.362Z,43.47
2023-04-13T14:54:06.043Z,43.77
2023-04-13T14:56:34.652Z,43.00
2023-04-13T14:59:03.536Z,39.79
2023-04-13T15:01:33.913Z,38.51
2023-04-13T15:04:02.591Z,40.45
2023-04-13T15:06:31.035Z,42.75
2023-04-13T15:09:00.668Z,40.68
2023-04-13T15:11:30.173Z,40.18
2023-04-13T15:13:58.548Z,41.50
2023-04-13T15:16:27.048Z,41.50
2023-04-13T15:18:56.876Z,40.55
2023-04-13T15:21:25.398Z,40.00
2023-04-13T15:23:53.851Z,39.89
2023-04-13T15:26:23.877Z,39.94
2023-04-13T15:28:52.415Z,40.95
2023-04-13T15:31:22.541Z,39.65
2023-04-13T15:33:51.832Z,39.84
2023-04-13T15:36:21.687Z,40.91
2023-04-13T15:38:50.370Z,39.83
2023-04-13T15:41:19.984Z,40.95
2023-04-13T15:43:48.348Z,40.16
2023-04-13T15:46:17.015Z,41.41
2023-04-13T15:48:46.770Z,40.66
2023-04-13T15:51:15.213Z,40.55
2023-04-13T15:53:45.037Z,40.88
2023-04-13T15:56:13.383Z,40.79
2023-04-13T15:58:41.813Z,41.21
2023-04-13T16:01:13.063Z,39.62
2023-04-13T16:03:42.322Z,41.62
2023-04-13T16:06:11.657Z,41.73
2023-04-13T16:08:40.298Z,43.11
2023-04-13T16:11:10.185Z,41.61
2023-04-13T16:16:14.407Z,42.88
2023-04-13T16:18:43.017Z,41.65
2023-04-13T16:21:12.495Z,41.59
2023-04-13T16:23:40.965Z,41.16
2023-04-13T16:26:11.051Z,41.82
2023-04-13T16:28:39.460Z,39.48
2023-04-13T16:31:11.122Z,41.00
2023-04-13T16:33:39.716Z,40.59
2023-04-13T16:36:09.323Z,39.68
2023-04-13T16:38:39.911Z,39.09
2023-04-13T16:41:08.370Z,38.90
2023-04-13T16:43:38.117Z,39.34
2023-04-13T16:46:06.839Z,37.30
2023-04-13T16:48:35.294Z,38.77
2023-04-13T16:51:04.713Z,38.17
2023-04-13T16:53:33.055Z,39.43
2023-04-13T16:56:01.565Z,39.49
2023-04-13T16:58:30.604Z,39.39
2023-04-13T17:01:00.380Z,39.06
2023-04-13T17:03:28.965Z,39.56
2023-04-13T17:05:57.541Z,40.29
2023-04-13T17:08:26.194Z,40.74
2023-04-13T17:10:54.628Z,42.04
2023-04-13T17:13:23.082Z,41.89
2023-04-13T17:15:52.038Z,42.50
2023-04-13T17:18:22.324Z,42.42
2023-04-13T17:20:55.693Z,43.83
2023-04-13T17:23:24.467Z,44.57
2023-04-13T17:25:54.192Z,45.15
2023-04-13T17:28:24.679Z,45.66
2023-04-13T17:30:53.194Z,45.19
2023-04-13T17:33:24.241Z,45.31
2023-04-13T17:35:54.580Z,45.66
2023-04-13T17:38:23.080Z,46.07
2023-04-13T17:40:52.147Z,46.10
2023-04-13T17:43:20.575Z,45.82
2023-04-13T17:45:49.092Z,46.31
2023-04-13T17:48:17.512Z,46.82
2023-04-13T17:50:47.344Z,47.29
2023-04-13T17:53:15.670Z,48.14
2023-04-13T17:55:44.289Z,49.12
2023-04-13T17:58:12.838Z,49.55
2023-04-13T18:00:41.477Z,50.08
2023-04-13T18:03:11.726Z,51.63
2023-04-13T18:05:44.751Z,52.73
2023-04-13T18:08:14.581Z,54.38
2023-04-13T18:10:43.122Z,54.74
2023-04-13T18:13:11.512Z,54.90
2023-04-13T18:15:39.959Z,54.46
2023-04-13T18:18:08.464Z,55.08
2023-04-13T18:20:37.239Z,54.65
2023-04-13T18:23:05.749Z,55.21
2023-04-13T18:25:35.543Z,54.62
2023-04-13T18:28:04.055Z,54.32
2023-04-13T18:30:32.469Z,54.96
2023-04-13T18:33:00.884Z,54.36
2023-04-13T18:35:29.725Z,53.02
2023-04-13T18:37:58.169Z,52.80
2023-04-13T18:40:26.727Z,52.44
2023-04-13T18:43:01.183Z,51.97
2023-04-13T18:45:29.734Z,51.83
2023-04-13T18:47:58.206Z,51.27
2023-04-13T18:50:27.658Z,50.43
2023-04-13T18:52:58.438Z,51.07
2023-04-13T18:55:28.525Z,51.38
2023-04-13T18:57:58.340Z,50.99
2023-04-13T19:00:27.016Z,51.11
2023-04-13T19:02:57.390Z,50.95
2023-04-13T19:05:26.446Z,51.57
2023-04-13T19:07:59.494Z,52.22
2023-04-13T19:10:28.958Z,52.81
2023-04-13T19:12:59.119Z,53.22
2023-04-13T19:15:27.732Z,53.86
2023-04-13T19:17:56.876Z,54.04
2023-04-13T19:20:26.266Z,54.51
2023-04-13T19:22:54.642Z,55.35
2023-04-13T19:25:23.293Z,54.96
2023-04-13T19:27:51.699Z,56.56
2023-04-13T19:30:21.531Z,56.09
2023-04-13T19:32:50.838Z,56.53
2023-04-13T19:35:21.560Z,56.78
2023-04-13T19:37:50.019Z,57.04
2023-04-13T19:40:18.375Z,56.72
2023-04-13T19:42:48.003Z,56.57
2023-04-13T19:45:16.955Z,57.08
2023-04-13T19:47:47.009Z,57.48
2023-04-13T19:50:16.758Z,57.74
2023-04-13T19:52:47.179Z,58.18
2023-04-13T19:55:15.609Z,57.94
2023-04-13T19:57:44.097Z,58.17
2023-04-13T20:00:21.150Z,57.90
2023-04-13T20:02:53.279Z,58.65
2023-04-13T20:05:22.452Z,60.09
2023-04-13T20:07:50.945Z,60.27
2023-04-13T20:10:19.405Z,60.62
2023-04-13T20:12:47.861Z,60.30
2023-04-13T20:15:16.299Z,60.62
2023-04-13T20:17:44.724Z,60.44
2023-04-13T20:20:15.318Z,60.61
2023-04-13T20:22:43.637Z,61.17
2023-04-13T20:25:12.134Z,61.88
2023-04-13T20:27:42.236Z,61.34
2023-04-13T20:30:11.827Z,61.53
2023-04-13T20:32:40.500Z,61.64
2023-04-13T20:35:10.364Z,62.07
2023-04-13T20:37:40.068Z,61.56
2023-04-13T20:40:11.312Z,62.16
2023-04-13T20:42:42.223Z,62.29
2023-04-13T20:45:14.865Z,63.48
2023-04-13T20:47:43.496Z,63.37
2023-04-13T20:50:13.069Z,63.25
2023-04-13T20:52:43.268Z,63.55
2023-04-13T20:55:12.712Z,63.20
2023-04-13T20:57:42.183Z,63.76
2023-04-13T21:00:15.584Z,65.03
2023-04-13T21:02:45.001Z,66.12
2023-04-13T21:05:13.804Z,65.29
2023-04-13T21:07:43.559Z,65.52
2023-04-13T21:10:12.578Z,65.38
2023-04-13T21:12:41.080Z,65.20
2023-04-13T21:15:10.875Z,65.46
2023-04-13T21:17:39.332Z,65.85
2023-04-13T21:20:10.006Z,65.54
2023-04-13T21:22:38.536Z,66.17
2023-04-13T21:25:09.052Z,66.27
2023-04-13T21:27:37.420Z,66.47
2023-04-13T21:30:07.500Z,66.30
2023-04-13T21:32:35.859Z,66.37
2023-04-13T21:35:04.336Z,66.81
2023-04-13T21:37:32.664Z,67.50
2023-04-13T21:40:01.313Z,67.88
2023-04-13T21:42:31.141Z,67.90
2023-04-13T21:44:59.917Z,67.73
2023-04-13T21:47:28.285Z,67.76
2023-04-13T21:49:56.574Z,67.39
2023-04-13T21:52:24.922Z,66.75
2023-04-13T21:54:53.388Z,66.59
2023-04-13T21:57:21.752Z,66.54
2023-04-13T21:59:51.457Z,67.20
2023-04-13T22:02:19.885Z,66.62
2023-04-13T22:04:48.386Z,67.55
2023-04-13T22:07:16.792Z,67.65
2023-04-13T22:09:45.115Z,68.45
2023-04-13T22:12:14.220Z,69.19
2023-04-13T22:14:42.538Z,69.10
2023-04-13T22:17:13.640Z,69.98
2023-04-13T22:19:42.834Z,70.17
2023-04-13T22:22:11.213Z,70.97
2023-04-13T22:24:39.577Z,70.50
2023-04-13T22:27:08.021Z,70.33
2023-04-13T22:29:36.321Z,69.77
2023-04-13T22:32:04.715Z,70.29
2023-04-13T22:34:34.672Z,70.81
2023-04-13T22:37:04.809Z,70.61
2023-04-13T22:39:33.228Z,70.94
2023-04-13T22:42:01.491Z,70.98
2023-04-13T22:44:34.311Z,70.57
2023-04-13T22:47:03.411Z,70.88
2023-04-13T22:49:33.207Z,71.25
2023-04-13T22:52:01.541Z,70.85
2023-04-13T22:54:30.051Z,71.52
2023-04-13T22:57:02.431Z,71.72
2023-04-13T22:59:32.268Z,71.48
2023-04-13T23:02:01.191Z,71.76
2023-04-13T23:04:29.676Z,71.97
2023-04-13T23:06:59.571Z,72.00
2023-04-13T23:09:27.921Z,71.81
2023-04-13T23:11:56.217Z,72.12
2023-04-13T23:14:24.899Z,71.70
2023-04-13T23:16:53.168Z,72.53
2023-04-13T23:19:21.766Z,72.31
2023-04-13T23:21:50.125Z,72.07
2023-04-13T23:24:19.877Z,72.19
2023-04-13T23:26:48.175Z,72.88
2023-04-13T23:29:16.609Z,73.20
2023-04-13T23:31:45.019Z,73.42
2023-04-13T23:34:13.499Z,73.34
2023-04-13T23:36:41.895Z,73.28
2023-04-13T23:39:10.189Z,73.74
2023-04-13T23:41:39.865Z,73.41
2023-04-13T23:44:08.253Z,73.65
2023-04-13T23:46:36.555Z,73.17
2023-04-13T23:49:04.897Z,73.15
2023-04-13T23:51:33.504Z,72.79
2023-04-13T23:54:02.094Z,73.26
2023-04-13T23:56:30.535Z,73.41
2023-04-13T23:59:00.335Z,73.80
